Audrey — PD9331 — position and weather

sailwx.info

Track history (hours):
 
Tides and Currents Weather Stations Pressure Air Temp Water Temp Dewpoint Dewpoint Depression Visibility Wind Speed Wind Dir Waves Ship Positions

Audrey

Last reported at 2017-Feb-17 09:17 UTC. Time now 2017-Feb-24 19:28 UTC.
Position N 49°12' E 008°23'.

Length 85 m; draft 1.5 m.

Type: Wing in ground effect craft. MMSI: 244660106.

Date/timePositionNaut miles runAvg speedWind from/ knotsBaromVisibWave heightAir tempDewpointWater temp
2017-Feb-17 09:17N 49°12' E 008°23'  
2017-Feb-11 11:25N 49°14' E 008°23'101 4.4
2017-Feb-10 12:33N 47°39' E 007°32'0 0.2
2017-Feb-10 11:33N 47°39' E 007°32'1 1.4
2017-Feb-10 10:32N 47°38' E 007°33'2 2.3
2017-Feb-10 09:33N 47°36' E 007°35'0 0.0
2017-Feb-10 08:26N 47°36' E 007°35'0 0.0
2017-Feb-10 07:34N 47°36' E 007°35'0 0.0
2017-Feb-10 06:33N 47°36' E 007°35'0 0.0
2017-Feb-10 05:33N 47°36' E 007°35'0 0.0
2017-Feb-10 04:33N 47°36' E 007°35'0 0.0
2017-Feb-10 03:33N 47°36' E 007°35'0 0.0
2017-Feb-10 02:33N 47°36' E 007°35'0 0.0
2017-Feb-10 01:33N 47°36' E 007°35'0 0.0
2017-Feb-10 00:33N 47°36' E 007°35'0 0.0
2017-Feb-09 23:33N 47°36' E 007°35'0 0.0
2017-Feb-09 22:33N 47°36' E 007°35'0 0.0
2017-Feb-09 21:33N 47°36' E 007°35'0 0.0
2017-Feb-09 20:33N 47°36' E 007°35'0 0.0
2017-Feb-09 19:34N 47°36' E 007°35'0 0.0
2017-Feb-09 18:33N 47°36' E 007°35'0 0.0
2017-Feb-09 17:33N 47°36' E 007°35'0 0.0
2017-Feb-09 16:32N 47°36' E 007°35'0 0.0
2017-Feb-09 15:34N 47°36' E 007°35'0 0.0
2017-Feb-09 14:33N 47°36' E 007°35'3 2.4
2017-Feb-09 13:22N 47°33' E 007°36'3 3.2
2017-Feb-09 12:33N 47°32' E 007°40'0 0.1
2017-Feb-09 11:33N 47°32' E 007°40'0 0.5
2017-Feb-09 10:33N 47°33' E 007°39'0 0.3
2017-Feb-09 09:33N 47°33' E 007°39'3 0.2
2017-Feb-08 17:14N 47°35' E 007°36'0 0.0
2017-Feb-08 16:16N 47°35' E 007°36'  
Track history (hours):
 
Tides and Currents Weather Stations Pressure Air Temp Water Temp Dewpoint Dewpoint Depression Visibility Wind Speed Wind Dir Waves Ship Positions

Audrey

Last reported at 2017-Feb-17 09:17 UTC. Time now 2017-Feb-24 19:28 UTC.
Position N 49°12' E 008°23'.

Length 85 m; draft 1.5 m.

Type: Wing in ground effect craft. MMSI: 244660106.

Date/timePositionNaut miles runAvg speedWind from/ knotsBaromVisibWave heightAir tempDewpointWater temp
2017-Feb-17 09:17N 49°12' E 008°23'  
2017-Feb-11 11:25N 49°14' E 008°23'101 4.4
2017-Feb-10 12:33N 47°39' E 007°32'0 0.2
2017-Feb-10 11:33N 47°39' E 007°32'1 1.4
2017-Feb-10 10:32N 47°38' E 007°33'2 2.3
2017-Feb-10 09:33N 47°36' E 007°35'0 0.0
2017-Feb-10 08:26N 47°36' E 007°35'0 0.0
2017-Feb-10 07:34N 47°36' E 007°35'0 0.0
2017-Feb-10 06:33N 47°36' E 007°35'0 0.0
2017-Feb-10 05:33N 47°36' E 007°35'0 0.0
2017-Feb-10 04:33N 47°36' E 007°35'0 0.0
2017-Feb-10 03:33N 47°36' E 007°35'0 0.0
2017-Feb-10 02:33N 47°36' E 007°35'0 0.0
2017-Feb-10 01:33N 47°36' E 007°35'0 0.0
2017-Feb-10 00:33N 47°36' E 007°35'0 0.0
2017-Feb-09 23:33N 47°36' E 007°35'0 0.0
2017-Feb-09 22:33N 47°36' E 007°35'0 0.0
2017-Feb-09 21:33N 47°36' E 007°35'0 0.0
2017-Feb-09 20:33N 47°36' E 007°35'0 0.0
2017-Feb-09 19:34N 47°36' E 007°35'0 0.0
2017-Feb-09 18:33N 47°36' E 007°35'0 0.0
2017-Feb-09 17:33N 47°36' E 007°35'0 0.0
2017-Feb-09 16:32N 47°36' E 007°35'0 0.0
2017-Feb-09 15:34N 47°36' E 007°35'0 0.0
2017-Feb-09 14:33N 47°36' E 007°35'3 2.4
2017-Feb-09 13:22N 47°33' E 007°36'3 3.2
2017-Feb-09 12:33N 47°32' E 007°40'0 0.1
2017-Feb-09 11:33N 47°32' E 007°40'0 0.5
2017-Feb-09 10:33N 47°33' E 007°39'0 0.3
2017-Feb-09 09:33N 47°33' E 007°39'3 0.2
2017-Feb-08 17:14N 47°35' E 007°36'0 0.0
2017-Feb-08 16:16N 47°35' E 007°36'  

Dump ship's entire track history